createdAt,value
2018-03-07T00:02:26.476Z,95621.33
2018-03-07T00:04:54.723Z,95620.28
2018-03-07T00:07:23.007Z,95624.22
2018-03-07T00:09:51.259Z,95621.42
2018-03-07T00:12:19.513Z,95626.32
2018-03-07T00:14:48.571Z,95632.40
2018-03-07T00:17:16.884Z,95626.06
2018-03-07T00:19:45.247Z,95625.59
2018-03-07T00:22:15.431Z,95632.58
2018-03-07T00:24:44.591Z,95633.11
2018-03-07T00:27:13.030Z,95644.10
2018-03-07T00:29:41.315Z,95644.23
2018-03-07T00:32:09.621Z,95641.47
2018-03-07T00:34:37.897Z,95643.17
2018-03-07T00:37:06.967Z,95649.23
2018-03-07T00:39:35.240Z,95653.23
2018-03-07T00:42:03.524Z,95655.19
2018-03-07T00:44:31.797Z,95649.41
2018-03-07T00:47:00.129Z,95644.93
2018-03-07T00:49:28.435Z,95643.34
2018-03-07T00:51:57.599Z,95644.91
2018-03-07T00:54:25.867Z,95647.81
2018-03-07T00:56:54.128Z,95641.06
2018-03-07T00:59:23.207Z,95658.09
2018-03-07T01:01:51.457Z,95651.35
2018-03-07T01:04:19.749Z,95650.67
2018-03-07T01:06:48.104Z,95651.20
2018-03-07T01:09:17.191Z,95646.31
2018-03-07T01:11:46.315Z,95639.82
2018-03-07T01:14:14.816Z,95645.98
2018-03-07T01:16:43.973Z,95645.84
2018-03-07T01:19:12.317Z,95641.00
2018-03-07T01:21:42.435Z,95649.17
2018-03-07T01:24:10.707Z,95646.63
2018-03-07T01:26:38.972Z,95642.13
2018-03-07T01:29:07.229Z,95640.36
2018-03-07T01:31:36.238Z,95639.71
2018-03-07T01:34:05.263Z,95640.36
2018-03-07T01:36:33.516Z,95638.59
2018-03-07T01:39:01.783Z,95637.73
2018-03-07T01:41:30.037Z,95639.63
2018-03-07T01:43:58.297Z,95636.53
2018-03-07T01:46:27.334Z,95635.80
2018-03-07T01:48:55.649Z,95637.64
2018-03-07T01:51:23.947Z,95641.28
2018-03-07T01:53:52.235Z,95638.64
2018-03-07T01:56:20.520Z,95633.78
2018-03-07T01:58:48.830Z,95635.95
2018-03-07T02:01:17.101Z,95632.22
2018-03-07T02:03:51.280Z,95639.29
2018-03-07T02:06:19.563Z,95639.44
2018-03-07T02:08:47.865Z,95639.41
2018-03-07T02:11:16.127Z,95632.23
2018-03-07T02:13:44.609Z,95637.12
2018-03-07T02:16:12.966Z,95636.19
2018-03-07T02:18:41.347Z,95637.45
2018-03-07T02:21:09.604Z,95639.69
2018-03-07T02:23:37.870Z,95647.98
2018-03-07T02:26:06.153Z,95636.43
2018-03-07T02:28:34.441Z,95648.13
2018-03-07T02:31:02.720Z,95647.89
2018-03-07T02:33:31.010Z,95646.98
2018-03-07T02:35:59.287Z,95644.66
2018-03-07T02:38:27.562Z,95649.64
2018-03-07T02:40:56.601Z,95651.96
2018-03-07T02:43:24.878Z,95646.94
2018-03-07T02:45:53.136Z,95646.66
2018-03-07T02:48:21.409Z,95648.37
2018-03-07T02:50:51.172Z,95657.05
2018-03-07T02:53:19.440Z,95653.34
2018-03-07T02:55:47.727Z,95647.59
2018-03-07T02:58:16.032Z,95656.31
2018-03-07T03:00:44.449Z,95657.10
2018-03-07T03:03:12.768Z,95655.96
2018-03-07T03:05:41.064Z,95652.53
2018-03-07T03:08:10.090Z,95655.31
2018-03-07T03:10:38.348Z,95661.27
2018-03-07T03:13:07.398Z,95659.52
2018-03-07T03:15:35.680Z,95659.47
2018-03-07T03:18:03.927Z,95651.66
2018-03-07T03:20:32.229Z,95655.36
2018-03-07T03:23:00.523Z,95654.20
2018-03-07T03:25:29.555Z,95651.94
2018-03-07T03:27:57.850Z,95660.73
2018-03-07T03:30:26.116Z,95655.45
2018-03-07T03:32:55.146Z,95658.88
2018-03-07T03:35:23.414Z,95657.41
2018-03-07T03:37:52.428Z,95666.08
2018-03-07T03:40:20.731Z,95663.28
2018-03-07T03:42:48.982Z,95656.08
2018-03-07T03:45:17.373Z,95665.09
2018-03-07T03:47:46.440Z,95663.89
2018-03-07T03:50:15.500Z,95658.11
2018-03-07T03:52:44.906Z,95659.11
2018-03-07T03:55:13.270Z,95664.02
2018-03-07T03:57:41.597Z,95660.06
2018-03-07T04:00:09.868Z,95658.71
2018-03-07T04:02:38.162Z,95650.02
2018-03-07T04:05:07.202Z,95647.71
2018-03-07T04:07:35.467Z,95653.60
2018-03-07T04:10:04.520Z,95653.52
2018-03-07T04:12:33.562Z,95655.77
2018-03-07T04:15:01.862Z,95663.05
2018-03-07T04:17:30.942Z,95662.98
2018-03-07T04:19:59.190Z,95671.61
2018-03-07T04:22:27.468Z,95668.50
2018-03-07T04:24:57.223Z,95671.55
2018-03-07T04:27:25.484Z,95668.19
2018-03-07T04:29:53.748Z,95670.57
2018-03-07T04:32:22.019Z,95674.72
2018-03-07T04:34:50.273Z,95675.64
2018-03-07T04:37:18.544Z,95675.81
2018-03-07T04:39:46.824Z,95678.47
2018-03-07T04:42:15.139Z,95677.38
2018-03-07T04:44:43.436Z,95685.28
2018-03-07T04:47:11.831Z,95687.77
2018-03-07T04:49:40.093Z,95695.13
2018-03-07T04:52:08.365Z,95694.91
2018-03-07T04:54:37.391Z,95688.96
2018-03-07T04:57:05.652Z,95691.61
2018-03-07T04:59:34.677Z,95699.98
2018-03-07T05:02:02.984Z,95702.51
2018-03-07T05:04:31.300Z,95700.92
2018-03-07T05:07:00.428Z,95708.82
2018-03-07T05:09:28.677Z,95709.66
2018-03-07T05:11:56.951Z,95705.06
2018-03-07T05:14:25.200Z,95707.82
2018-03-07T05:16:53.473Z,95709.94
2018-03-07T05:19:21.745Z,95709.29
2018-03-07T05:21:50.025Z,95709.56
2018-03-07T05:24:18.282Z,95707.16
2018-03-07T05:26:47.334Z,95712.86
2018-03-07T05:29:15.643Z,95719.16
2018-03-07T05:31:44.157Z,95715.22
2018-03-07T05:34:13.230Z,95723.66
2018-03-07T05:36:41.530Z,95723.54
2018-03-07T05:39:09.804Z,95732.91
2018-03-07T05:41:38.956Z,95729.19
2018-03-07T05:44:08.043Z,95734.58
2018-03-07T05:46:36.284Z,95734.17
2018-03-07T05:49:04.553Z,95731.01
2018-03-07T05:51:33.571Z,95735.63
2018-03-07T05:54:01.895Z,95736.77
2018-03-07T05:56:30.200Z,95733.89
2018-03-07T05:58:58.481Z,95727.82
2018-03-07T06:01:26.732Z,95728.59
2018-03-07T06:03:55.029Z,95737.30
2018-03-07T06:06:23.411Z,95750.67
2018-03-07T06:08:51.664Z,95751.75
2018-03-07T06:11:19.940Z,95760.73
2018-03-07T06:13:48.247Z,95753.48
2018-03-07T06:16:17.328Z,95762.42
2018-03-07T06:18:45.626Z,95760.77
2018-03-07T06:21:13.934Z,95768.00
2018-03-07T06:23:42.975Z,95765.25
2018-03-07T06:26:11.391Z,95772.22
2018-03-07T06:28:39.663Z,95783.31
2018-03-07T06:31:07.916Z,95784.86
2018-03-07T06:33:37.320Z,95796.34
2018-03-07T06:36:05.588Z,95779.46
2018-03-07T06:38:35.589Z,95786.96
2018-03-07T06:41:03.911Z,95792.80
2018-03-07T06:43:32.174Z,95793.58
2018-03-07T06:46:00.481Z,95815.22
2018-03-07T06:48:28.753Z,95800.18
2018-03-07T06:50:57.012Z,95794.52
2018-03-07T06:53:26.046Z,95802.31
2018-03-07T06:55:54.337Z,95804.44
2018-03-07T06:58:22.623Z,95804.70
2018-03-07T07:00:50.886Z,95810.35
2018-03-07T07:03:19.887Z,95815.63
2018-03-07T07:05:48.355Z,95820.12
2018-03-07T07:08:16.661Z,95829.92
2018-03-07T07:10:45.780Z,95832.08
2018-03-07T07:13:14.838Z,95832.74
2018-03-07T07:15:43.234Z,95844.08
2018-03-07T07:18:12.355Z,95847.81
2018-03-07T07:20:40.643Z,95846.87
2018-03-07T07:23:08.952Z,95855.45
2018-03-07T07:25:37.228Z,95859.42
2018-03-07T07:28:05.483Z,95864.05
2018-03-07T07:30:33.769Z,95866.55
2018-03-07T07:33:02.103Z,95866.84
2018-03-07T07:35:30.408Z,95869.20
2018-03-07T07:37:58.673Z,95880.58
2018-03-07T07:40:26.947Z,95868.81
2018-03-07T07:42:55.233Z,95876.87
2018-03-07T07:45:23.594Z,95879.92
2018-03-07T07:47:51.853Z,95883.20
2018-03-07T07:50:20.119Z,95882.28
2018-03-07T07:52:48.363Z,95879.64
2018-03-07T07:55:16.637Z,95888.61
2018-03-07T07:57:45.743Z,95891.87
2018-03-07T08:00:14.845Z,95883.03
2018-03-07T08:02:43.182Z,95896.88
2018-03-07T08:05:11.546Z,95905.66
2018-03-07T08:07:39.836Z,95903.77
2018-03-07T08:10:08.109Z,95904.34
2018-03-07T08:12:37.123Z,95916.54
2018-03-07T08:15:06.165Z,95928.23
2018-03-07T08:17:34.444Z,95922.39
2018-03-07T08:20:03.485Z,95921.02
2018-03-07T08:22:31.822Z,95925.63
2018-03-07T08:25:00.160Z,95926.20
2018-03-07T08:27:28.431Z,95927.70
2018-03-07T08:29:56.689Z,95934.92
2018-03-07T08:32:25.700Z,95931.33
2018-03-07T08:34:54.837Z,95934.52
2018-03-07T08:37:23.109Z,95927.59
2018-03-07T08:39:51.374Z,95933.92
2018-03-07T08:42:20.395Z,95933.73
2018-03-07T08:44:49.437Z,95925.66
2018-03-07T08:47:17.767Z,95925.69
2018-03-07T08:49:46.048Z,95930.14
2018-03-07T08:52:14.406Z,95931.02
2018-03-07T08:54:43.489Z,95929.64
2018-03-07T08:57:11.814Z,95928.95
2018-03-07T08:59:40.109Z,95926.24
2018-03-07T09:02:08.380Z,95934.59
2018-03-07T09:04:36.667Z,95933.36
2018-03-07T09:07:04.925Z,95941.95
2018-03-07T09:09:33.957Z,95946.77
2018-03-07T09:12:02.280Z,95945.97
2018-03-07T09:14:30.659Z,95952.33
2018-03-07T09:16:58.921Z,95944.86
2018-03-07T09:19:27.204Z,95958.94
2018-03-07T09:21:55.471Z,95968.19
2018-03-07T09:24:24.477Z,95965.09
2018-03-07T09:26:53.514Z,95964.34
2018-03-07T09:29:21.777Z,95970.23
2018-03-07T09:31:51.226Z,95977.03
2018-03-07T09:34:19.472Z,95977.92
2018-03-07T09:36:49.088Z,95993.58
2018-03-07T09:39:17.406Z,95985.23
2018-03-07T09:41:45.680Z,95989.94
2018-03-07T09:44:14.752Z,96000.05
2018-03-07T09:46:43.252Z,95996.71
2018-03-07T09:49:12.547Z,96003.10
2018-03-07T09:51:41.008Z,96012.54
2018-03-07T09:54:10.044Z,96023.02
2018-03-07T09:56:38.624Z,96015.25
2018-03-07T09:59:07.802Z,96029.00
2018-03-07T10:01:37.022Z,96037.49
2018-03-07T10:04:05.605Z,96037.25
2018-03-07T10:06:35.501Z,96037.00
2018-03-07T10:09:04.479Z,96040.02
2018-03-07T10:11:32.899Z,96028.63
2018-03-07T10:14:01.347Z,96026.16
2018-03-07T10:16:30.732Z,96029.58
2018-03-07T10:18:59.323Z,96036.42
2018-03-07T10:21:28.525Z,96026.91
2018-03-07T10:23:57.059Z,96027.39
2018-03-07T10:26:25.493Z,96024.70
2018-03-07T10:28:53.968Z,96026.98
2018-03-07T10:31:22.606Z,96029.53
2018-03-07T10:33:51.204Z,96024.47
2018-03-07T10:36:19.769Z,96025.83
2018-03-07T10:38:48.523Z,96021.10
2018-03-07T10:41:18.051Z,96036.50
2018-03-07T10:43:46.756Z,96030.48
2018-03-07T10:46:15.468Z,96034.99
2018-03-07T10:48:44.304Z,96046.41
2018-03-07T10:51:13.557Z,96046.69
2018-03-07T10:53:42.622Z,96044.61
2018-03-07T10:56:12.770Z,96043.41
2018-03-07T10:58:41.719Z,96043.75
2018-03-07T11:01:11.393Z,96053.16
2018-03-07T11:03:44.419Z,96055.05
2018-03-07T11:06:13.167Z,96047.84
2018-03-07T11:08:43.697Z,96051.56
2018-03-07T11:11:12.793Z,96054.45
2018-03-07T11:13:42.300Z,96058.17
2018-03-07T11:16:10.852Z,96060.48
2018-03-07T11:18:39.574Z,96059.06
2018-03-07T11:21:08.082Z,96059.61
2018-03-07T11:23:37.544Z,96070.83
2018-03-07T11:26:06.750Z,96065.52
2018-03-07T11:28:35.595Z,96064.52
2018-03-07T11:31:04.265Z,96058.69
2018-03-07T11:33:33.165Z,96074.44
2018-03-07T11:36:02.341Z,96073.03
2018-03-07T11:38:33.682Z,96063.27
2018-03-07T11:41:02.470Z,96073.91
2018-03-07T11:43:30.988Z,96067.00
2018-03-07T11:46:04.361Z,96074.02
2018-03-07T11:48:33.819Z,96074.37
2018-03-07T11:51:04.331Z,96072.80
2018-03-07T11:53:33.824Z,96070.64
2018-03-07T11:56:03.150Z,96110.24
2018-03-07T11:58:31.862Z,96070.34
2018-03-07T12:01:00.485Z,96069.34
2018-03-07T12:03:31.004Z,96061.53
2018-03-07T12:06:00.488Z,96059.55
2018-03-07T12:08:29.138Z,96070.44
2018-03-07T12:10:58.606Z,96062.59
2018-03-07T12:13:27.326Z,96060.14
2018-03-07T12:15:55.766Z,96060.25
2018-03-07T12:18:24.420Z,96057.06
2018-03-07T12:20:53.926Z,96063.78
2018-03-07T12:23:22.462Z,96062.73
2018-03-07T12:25:51.113Z,96063.80
2018-03-07T12:28:20.482Z,96064.05
2018-03-07T12:30:49.739Z,96070.69
2018-03-07T12:33:18.247Z,96056.79
2018-03-07T12:35:46.929Z,96068.52
2018-03-07T12:38:15.700Z,96050.67
2018-03-07T12:40:44.375Z,96061.18
2018-03-07T12:43:13.413Z,96057.52
2018-03-07T12:45:42.059Z,96064.31
2018-03-07T12:48:10.772Z,96051.27
2018-03-07T12:50:40.056Z,96053.60
2018-03-07T12:53:08.441Z,96054.08
2018-03-07T12:55:38.065Z,96056.47
2018-03-07T12:58:06.453Z,96055.30
2018-03-07T13:00:35.323Z,96065.52
2018-03-07T13:03:04.713Z,96074.67
2018-03-07T13:05:33.345Z,96065.81
2018-03-07T13:08:01.911Z,96068.71
2018-03-07T13:10:34.457Z,96072.37
2018-03-07T13:13:04.914Z,96078.52
2018-03-07T13:15:34.612Z,96078.03
2018-03-07T13:18:03.156Z,96083.06
2018-03-07T13:20:40.559Z,96092.70
2018-03-07T13:23:10.696Z,96103.09
2018-03-07T13:25:39.985Z,96087.13
2018-03-07T13:28:09.170Z,96095.41
2018-03-07T13:30:37.973Z,96088.52
2018-03-07T13:33:06.464Z,96089.85
2018-03-07T13:35:35.023Z,96094.62
2018-03-07T13:38:04.544Z,96084.80
2018-03-07T13:40:33.866Z,96083.34
2018-03-07T13:43:03.040Z,96093.52
2018-03-07T13:45:31.521Z,96079.64
2018-03-07T13:48:01.487Z,96084.48
2018-03-07T13:50:30.880Z,96081.61
2018-03-07T13:53:00.415Z,96098.16
2018-03-07T13:55:28.845Z,96085.00
2018-03-07T13:57:58.379Z,96092.30
2018-03-07T14:00:27.041Z,96085.22
2018-03-07T14:02:55.623Z,96093.52
2018-03-07T14:05:24.631Z,96095.47
2018-03-07T14:07:55.218Z,96085.24
2018-03-07T14:10:24.290Z,96093.19
2018-03-07T14:12:52.656Z,96097.03
2018-03-07T14:15:20.933Z,96087.87
2018-03-07T14:17:49.224Z,96090.19
2018-03-07T14:20:17.541Z,96085.57
2018-03-07T14:22:46.728Z,96081.72
2018-03-07T14:25:15.923Z,96080.45
2018-03-07T14:27:44.354Z,96080.59
2018-03-07T14:30:12.823Z,96079.71
2018-03-07T14:32:41.156Z,96078.50
2018-03-07T14:35:10.217Z,96088.75
2018-03-07T14:37:38.557Z,96079.62
2018-03-07T14:40:07.613Z,96083.33
2018-03-07T14:42:36.051Z,96089.50
2018-03-07T14:45:04.324Z,96074.72
2018-03-07T14:47:32.669Z,96082.16
2018-03-07T14:50:00.958Z,96075.83
2018-03-07T14:52:29.320Z,96072.73
2018-03-07T14:54:58.394Z,96072.72
2018-03-07T14:57:26.845Z,96077.88
2018-03-07T14:59:55.226Z,96081.45
2018-03-07T15:02:24.387Z,96077.64
2018-03-07T15:04:53.272Z,96083.17
2018-03-07T15:07:21.624Z,96076.52
2018-03-07T15:09:49.923Z,96077.95
2018-03-07T15:12:19.071Z,96075.54
2018-03-07T15:14:47.442Z,96079.22
2018-03-07T15:17:15.784Z,96078.09
2018-03-07T15:19:45.759Z,96084.77
2018-03-07T15:22:14.244Z,96081.16
2018-03-07T15:24:42.661Z,96086.16
2018-03-07T15:27:10.956Z,96092.40
2018-03-07T15:29:39.224Z,96090.77
2018-03-07T15:32:07.513Z,96085.95
2018-03-07T15:34:35.811Z,96092.05
2018-03-07T15:37:04.161Z,96088.20
2018-03-07T15:39:33.242Z,96098.52
2018-03-07T15:42:01.557Z,96099.11
2018-03-07T15:44:30.595Z,96099.52
2018-03-07T15:46:58.860Z,96094.59
2018-03-07T15:49:27.996Z,96104.95
2018-03-07T15:51:56.304Z,96107.27
2018-03-07T15:54:24.622Z,96115.67
2018-03-07T15:56:52.875Z,96107.51
2018-03-07T15:59:21.164Z,96116.27
2018-03-07T16:01:49.421Z,96119.19
2018-03-07T16:04:18.523Z,96121.34
2018-03-07T16:06:47.668Z,96126.10
2018-03-07T16:09:15.979Z,96128.25
2018-03-07T16:11:44.505Z,96138.76
2018-03-07T16:14:12.886Z,96147.28
2018-03-07T16:16:41.244Z,96157.16
2018-03-07T16:19:10.490Z,96155.05
2018-03-07T16:21:38.847Z,96157.98
2018-03-07T16:24:07.146Z,96161.69
2018-03-07T16:26:35.527Z,96170.04
2018-03-07T16:29:03.800Z,96169.19
2018-03-07T16:31:32.271Z,96173.59
2018-03-07T16:34:00.557Z,96174.84
2018-03-07T16:36:29.617Z,96181.22
2018-03-07T16:38:57.901Z,96180.14
2018-03-07T16:41:26.173Z,96184.96
2018-03-07T16:43:54.448Z,96184.16
2018-03-07T16:46:22.724Z,96181.26
2018-03-07T16:48:51.769Z,96189.73
2018-03-07T16:51:20.150Z,96184.99
2018-03-07T16:53:48.483Z,96187.38
2018-03-07T16:56:17.178Z,96192.27
2018-03-07T16:58:45.633Z,96199.16
2018-03-07T17:01:14.227Z,96199.18
2018-03-07T17:03:42.796Z,96193.06
2018-03-07T17:06:11.140Z,96194.00
2018-03-07T17:08:42.076Z,96230.38
2018-03-07T17:11:12.885Z,96204.97
2018-03-07T17:13:42.288Z,96209.98
2018-03-07T17:16:10.741Z,96212.75
2018-03-07T17:18:39.883Z,96217.11
2018-03-07T17:21:08.954Z,96217.90
2018-03-07T17:23:37.221Z,96217.34
2018-03-07T17:26:05.524Z,96231.36
2018-03-07T17:28:34.136Z,96239.05
2018-03-07T17:31:06.773Z,96236.31
2018-03-07T17:33:35.653Z,96242.33
2018-03-07T17:36:04.203Z,96248.81
2018-03-07T17:38:32.798Z,96253.54
2018-03-07T17:41:05.465Z,96260.27
2018-03-07T17:43:35.792Z,96270.06
2018-03-07T17:46:06.139Z,96268.91
2018-03-07T17:48:42.189Z,96273.73
2018-03-07T17:51:13.073Z,96276.42
2018-03-07T17:53:41.569Z,96283.34
2018-03-07T17:56:10.653Z,96289.55
2018-03-07T17:58:38.918Z,96294.55
2018-03-07T18:01:07.221Z,96292.66
2018-03-07T18:03:35.499Z,96295.22
2018-03-07T18:06:03.848Z,96303.72
2018-03-07T18:08:32.153Z,96301.17
2018-03-07T18:11:00.442Z,96312.70
2018-03-07T18:13:28.753Z,96310.81
2018-03-07T18:15:57.067Z,96313.23
2018-03-07T18:18:26.212Z,96321.88
2018-03-07T18:20:54.464Z,96322.15
2018-03-07T18:23:22.740Z,96319.19
2018-03-07T18:25:51.028Z,96325.48
2018-03-07T18:28:19.318Z,96327.10
2018-03-07T18:30:47.636Z,96327.78
2018-03-07T18:33:16.301Z,96326.20
2018-03-07T18:35:45.421Z,96335.87
2018-03-07T18:38:13.770Z,96334.59
2018-03-07T18:40:43.282Z,96330.45
2018-03-07T18:43:11.963Z,96338.53
2018-03-07T18:45:41.661Z,96343.58
2018-03-07T18:48:10.745Z,96357.33
2018-03-07T18:50:41.153Z,96353.78
2018-03-07T18:53:13.276Z,96349.97
2018-03-07T18:55:41.695Z,96359.71
2018-03-07T18:58:10.741Z,96358.37
2018-03-07T19:00:39.019Z,96358.11
2018-03-07T19:03:07.292Z,96361.03
2018-03-07T19:05:36.380Z,96367.36
2018-03-07T19:08:04.689Z,96368.55
2018-03-07T19:10:35.198Z,96368.87
2018-03-07T19:13:03.483Z,96368.19
2018-03-07T19:15:31.756Z,96367.84
2018-03-07T19:18:00.042Z,96370.07
2018-03-07T19:20:29.079Z,96370.68
2018-03-07T19:22:57.332Z,96372.34
2018-03-07T19:25:25.613Z,96380.56
2018-03-07T19:27:53.871Z,96374.60
2018-03-07T19:30:22.939Z,96385.38
2018-03-07T19:32:51.201Z,96375.98
2018-03-07T19:35:19.499Z,96379.72
2018-03-07T19:37:47.759Z,96385.30
2018-03-07T19:40:16.077Z,96387.88
2018-03-07T19:42:44.407Z,96390.66
2018-03-07T19:45:13.460Z,96403.56
2018-03-07T19:47:41.843Z,96393.81
2018-03-07T19:50:10.105Z,96403.69
2018-03-07T19:52:39.128Z,96406.03
2018-03-07T19:55:07.396Z,96405.16
2018-03-07T19:57:36.414Z,96408.98
2018-03-07T20:00:09.276Z,96416.82
2018-03-07T20:02:38.252Z,96419.40
2018-03-07T20:05:06.514Z,96426.37
2018-03-07T20:07:34.789Z,96419.83
2018-03-07T20:10:03.836Z,96421.20
2018-03-07T20:12:32.124Z,96407.94
2018-03-07T20:15:01.243Z,96412.41
2018-03-07T20:17:29.501Z,96413.70
2018-03-07T20:19:57.764Z,96428.57
2018-03-07T20:22:26.032Z,96441.50
2018-03-07T20:24:54.312Z,96444.51
2018-03-07T20:27:22.590Z,96447.94
2018-03-07T20:29:50.879Z,96454.05
2018-03-07T20:32:19.177Z,96460.17
2018-03-07T20:34:47.466Z,96461.28
2018-03-07T20:37:15.847Z,96459.75
2018-03-07T20:39:47.674Z,96467.09
2018-03-07T20:42:17.491Z,96470.98
2018-03-07T20:44:45.783Z,96474.70
2018-03-07T20:47:15.587Z,96480.01
2018-03-07T20:49:43.966Z,96486.16
2018-03-07T20:52:13.923Z,96490.60
2018-03-07T20:54:44.339Z,96484.43
2018-03-07T20:57:14.669Z,96498.73
2018-03-07T20:59:44.895Z,96503.52
2018-03-07T21:02:14.497Z,96510.89
2018-03-07T21:04:43.038Z,96514.56
2018-03-07T21:07:12.260Z,96517.12
2018-03-07T21:09:42.308Z,96522.58
2018-03-07T21:12:13.537Z,96519.22
2018-03-07T21:14:41.912Z,96525.10
2018-03-07T21:17:10.261Z,96530.95
2018-03-07T21:19:38.556Z,96525.62
2018-03-07T21:22:06.855Z,96528.85
2018-03-07T21:24:35.115Z,96529.45
2018-03-07T21:27:04.217Z,96520.74
2018-03-07T21:29:33.252Z,96521.00
2018-03-07T21:32:01.541Z,96520.02
2018-03-07T21:34:29.820Z,96534.75
2018-03-07T21:36:58.104Z,96526.03
2018-03-07T21:39:26.369Z,96535.53
2018-03-07T21:41:54.653Z,96530.25
2018-03-07T21:44:22.936Z,96542.62
2018-03-07T21:46:51.203Z,96547.16
2018-03-07T21:49:19.466Z,96549.43
2018-03-07T21:51:47.813Z,96554.88
2018-03-07T21:54:17.163Z,96543.83
2018-03-07T21:56:46.421Z,96544.91
2018-03-07T21:59:15.557Z,96555.30
2018-03-07T22:01:43.930Z,96555.94
2018-03-07T22:04:12.325Z,96561.36
2018-03-07T22:06:40.619Z,96562.61
2018-03-07T22:09:14.525Z,96570.36
2018-03-07T22:11:42.958Z,96571.16
2018-03-07T22:14:11.437Z,96571.78
2018-03-07T22:16:39.931Z,96569.27
2018-03-07T22:19:08.210Z,96571.63
2018-03-07T22:21:36.503Z,96573.48
2018-03-07T22:24:04.760Z,96576.87
2018-03-07T22:26:33.145Z,96584.19
2018-03-07T22:29:01.465Z,96582.66
2018-03-07T22:31:29.766Z,96584.73
2018-03-07T22:33:58.033Z,96587.27
2018-03-07T22:36:26.299Z,96589.23
2018-03-07T22:38:54.573Z,96597.14
2018-03-07T22:41:22.904Z,96596.81
2018-03-07T22:43:51.186Z,96592.75
2018-03-07T22:46:19.464Z,96599.63
2018-03-07T22:48:47.788Z,96611.25
2018-03-07T22:51:16.845Z,96614.19
2018-03-07T22:53:45.220Z,96605.37
2018-03-07T22:56:14.649Z,96607.88
2018-03-07T22:58:43.253Z,96615.20
2018-03-07T23:01:11.636Z,96609.48
2018-03-07T23:03:39.924Z,96621.96
2018-03-07T23:06:08.182Z,96621.16
2018-03-07T23:08:36.474Z,96624.67
2018-03-07T23:11:04.786Z,96636.05
2018-03-07T23:13:33.138Z,96636.82
2018-03-07T23:16:02.544Z,96638.89
2018-03-07T23:18:30.867Z,96640.44
2018-03-07T23:21:00.631Z,96647.42
2018-03-07T23:23:30.838Z,96650.61
2018-03-07T23:25:59.861Z,96646.70
2018-03-07T23:28:28.154Z,96648.78
2018-03-07T23:30:56.418Z,96656.00
2018-03-07T23:33:25.465Z,96658.78
2018-03-07T23:35:53.745Z,96652.45
2018-03-07T23:38:22.051Z,96655.05
2018-03-07T23:40:50.305Z,96658.45
2018-03-07T23:43:18.573Z,96663.45
2018-03-07T23:45:46.856Z,96670.50
2018-03-07T23:48:15.977Z,96670.39
2018-03-07T23:50:44.370Z,96670.17
2018-03-07T23:53:12.875Z,96687.85
2018-03-07T23:55:41.130Z,96685.09
2018-03-07T23:58:09.447Z,96689.65
